createdAt,value
2017-12-23T00:00:40.452Z,97.67
2017-12-23T00:01:46.154Z,97.78
2017-12-23T00:02:50.656Z,97.79
2017-12-23T00:03:56.089Z,97.68
2017-12-23T00:05:01.829Z,97.65
2017-12-23T00:06:06.271Z,97.69
2017-12-23T00:07:10.713Z,97.75
2017-12-23T00:08:15.516Z,97.62
2017-12-23T00:09:20.149Z,97.63
2017-12-23T00:10:24.993Z,97.68
2017-12-23T00:11:29.544Z,97.70
2017-12-23T00:12:33.976Z,97.85
2017-12-23T00:13:38.558Z,97.84
2017-12-23T00:14:43.187Z,97.92
2017-12-23T00:15:48.282Z,97.99
2017-12-23T00:16:53.792Z,98.04
2017-12-23T00:17:58.247Z,98.06
2017-12-23T00:19:02.764Z,98.16
2017-12-23T00:20:07.201Z,98.17
2017-12-23T00:21:11.796Z,98.21
2017-12-23T00:22:16.544Z,98.30
2017-12-23T00:23:21.044Z,98.36
2017-12-23T00:24:25.716Z,98.35
2017-12-23T00:25:30.229Z,98.33
2017-12-23T00:26:34.808Z,98.31
2017-12-23T00:27:40.299Z,98.33
2017-12-23T00:28:44.985Z,98.32
2017-12-23T00:29:49.495Z,98.32
2017-12-23T00:30:54.454Z,98.26
2017-12-23T00:31:59.148Z,98.28
2017-12-23T00:33:03.885Z,98.29
2017-12-23T00:34:08.431Z,98.33
2017-12-23T00:35:13.211Z,98.29
2017-12-23T00:36:17.710Z,98.38
2017-12-23T00:37:22.208Z,98.22
2017-12-23T00:38:27.605Z,98.20
2017-12-23T00:39:32.096Z,98.20
2017-12-23T00:40:36.585Z,98.22
2017-12-23T00:41:41.922Z,98.20
2017-12-23T00:42:46.563Z,98.15
2017-12-23T00:43:51.000Z,98.26
2017-12-23T00:44:56.494Z,98.28
2017-12-23T00:46:01.070Z,98.32
2017-12-23T00:47:05.610Z,98.40
2017-12-23T00:48:14.120Z,98.43
2017-12-23T00:49:18.658Z,98.40
2017-12-23T00:50:23.270Z,98.45
2017-12-23T00:51:27.876Z,98.43
2017-12-23T00:52:32.484Z,98.44
2017-12-23T00:53:36.912Z,98.40
2017-12-23T00:54:41.478Z,98.35
2017-12-23T00:55:46.035Z,98.22
2017-12-23T00:56:50.626Z,98.25
2017-12-23T00:57:56.417Z,98.24
2017-12-23T00:59:01.746Z,98.16
2017-12-23T01:00:08.332Z,98.10
2017-12-23T01:01:13.018Z,98.13
2017-12-23T01:02:17.459Z,98.07
2017-12-23T01:03:21.948Z,97.86
2017-12-23T01:04:26.514Z,97.65
2017-12-23T01:05:31.255Z,97.68
2017-12-23T01:06:35.852Z,97.59
2017-12-23T01:07:40.371Z,97.62
2017-12-23T01:08:45.180Z,97.50
2017-12-23T01:09:49.651Z,97.53
2017-12-23T01:10:54.231Z,97.60
2017-12-23T01:11:59.955Z,97.77
2017-12-23T01:13:04.584Z,97.79
2017-12-23T01:14:11.911Z,97.72
2017-12-23T01:15:16.641Z,97.82
2017-12-23T01:17:35.090Z,97.95
2017-12-23T01:18:39.503Z,97.98
2017-12-23T01:19:44.068Z,97.90
2017-12-23T01:20:48.548Z,97.92
2017-12-23T01:21:53.668Z,97.88
2017-12-23T01:23:00.063Z,97.93
2017-12-23T01:24:04.908Z,97.95
2017-12-23T01:25:09.339Z,97.85
2017-12-23T01:26:13.918Z,97.81
2017-12-23T01:27:18.520Z,97.84
2017-12-23T01:28:23.009Z,97.95
2017-12-23T01:29:27.801Z,97.99
2017-12-23T01:30:32.532Z,97.95
2017-12-23T01:31:37.286Z,97.90
2017-12-23T01:32:41.849Z,97.89
2017-12-23T01:33:46.671Z,97.93
2017-12-23T01:34:51.813Z,97.96
2017-12-23T01:35:56.619Z,97.93
2017-12-23T01:37:01.120Z,97.82
2017-12-23T01:38:05.705Z,97.84
2017-12-23T01:39:10.177Z,97.78
2017-12-23T01:40:14.692Z,97.82
2017-12-23T01:41:19.524Z,97.77
2017-12-23T01:42:24.617Z,97.75
2017-12-23T01:43:29.113Z,97.77
2017-12-23T01:44:33.514Z,97.87
2017-12-23T01:45:38.824Z,97.84
2017-12-23T01:46:43.263Z,97.89
2017-12-23T01:47:48.382Z,97.85
2017-12-23T01:48:52.884Z,97.80
2017-12-23T01:49:58.341Z,97.79
2017-12-23T01:51:02.841Z,97.86
2017-12-23T01:52:07.285Z,97.69
2017-12-23T01:53:11.833Z,97.70
2017-12-23T01:54:16.691Z,97.53
2017-12-23T01:55:21.171Z,97.51
2017-12-23T01:56:25.684Z,97.42
2017-12-23T01:57:32.197Z,97.42
2017-12-23T01:58:36.781Z,97.51
2017-12-23T02:00:43.701Z,97.59
2017-12-23T02:01:48.548Z,97.72
2017-12-23T02:02:53.473Z,97.80
2017-12-23T02:03:58.082Z,97.89
2017-12-23T02:05:02.568Z,97.89
2017-12-23T02:06:07.101Z,97.89
2017-12-23T02:07:11.808Z,97.94
2017-12-23T02:08:18.584Z,97.93
2017-12-23T02:09:23.179Z,97.89
2017-12-23T02:10:28.190Z,97.70
2017-12-23T02:11:32.725Z,97.76
2017-12-23T02:12:38.264Z,97.81
2017-12-23T02:13:43.048Z,97.73
2017-12-23T02:14:47.604Z,97.71
2017-12-23T02:15:53.349Z,97.54
2017-12-23T02:16:59.063Z,97.65
2017-12-23T02:18:03.476Z,97.65
2017-12-23T02:19:07.998Z,97.55
2017-12-23T02:20:12.520Z,97.48
2017-12-23T02:21:17.077Z,97.58
2017-12-23T02:22:21.572Z,97.56
2017-12-23T02:23:26.132Z,97.38
2017-12-23T02:24:30.711Z,97.45
2017-12-23T02:25:35.373Z,97.36
2017-12-23T02:26:39.873Z,97.41
2017-12-23T02:27:44.383Z,97.46
2017-12-23T02:28:48.904Z,97.50
2017-12-23T02:29:54.620Z,97.56
2017-12-23T02:30:59.478Z,97.60
2017-12-23T02:32:03.997Z,97.48
2017-12-23T02:33:08.395Z,97.45
2017-12-23T02:34:12.792Z,97.52
2017-12-23T02:35:17.175Z,97.53
2017-12-23T02:36:21.995Z,97.67
2017-12-23T02:37:26.442Z,97.77
2017-12-23T02:38:30.925Z,97.84
2017-12-23T02:39:35.454Z,97.87
2017-12-23T02:40:39.939Z,97.88
2017-12-23T02:41:44.585Z,97.90
2017-12-23T02:42:50.421Z,97.93
2017-12-23T02:43:54.908Z,98.03
2017-12-23T02:44:59.908Z,98.02
2017-12-23T02:46:04.765Z,97.89
2017-12-23T02:47:09.586Z,97.94
2017-12-23T02:49:28.269Z,97.80
2017-12-23T02:50:32.676Z,97.75
2017-12-23T02:51:37.231Z,97.66
2017-12-23T02:52:41.684Z,97.67
2017-12-23T02:53:46.091Z,97.56
2017-12-23T02:54:50.873Z,97.60
2017-12-23T02:55:55.305Z,97.63
2017-12-23T02:57:00.123Z,97.67
2017-12-23T02:58:04.564Z,97.76
2017-12-23T02:59:09.022Z,97.66
2017-12-23T03:00:18.841Z,97.78
2017-12-23T03:01:23.740Z,97.78
2017-12-23T03:02:28.261Z,97.71
2017-12-23T03:03:33.018Z,97.74
2017-12-23T03:04:38.036Z,97.67
2017-12-23T03:05:42.467Z,97.58
2017-12-23T03:06:46.932Z,97.56
2017-12-23T03:07:51.624Z,97.53
2017-12-23T03:08:56.136Z,97.52
2017-12-23T03:10:01.192Z,97.59
2017-12-23T03:11:05.588Z,97.42
2017-12-23T03:12:10.152Z,97.38
2017-12-23T03:13:14.531Z,97.43
2017-12-23T03:14:20.177Z,97.29
2017-12-23T03:15:24.899Z,97.31
2017-12-23T03:16:30.269Z,97.22
2017-12-23T03:17:34.912Z,97.28
2017-12-23T03:18:39.423Z,97.28
2017-12-23T03:19:43.948Z,97.17
2017-12-23T03:20:48.378Z,97.26
2017-12-23T03:21:52.936Z,97.24
2017-12-23T03:22:57.493Z,97.12
2017-12-23T03:24:01.987Z,96.98
2017-12-23T03:25:06.574Z,96.89
2017-12-23T03:26:11.054Z,96.84
2017-12-23T03:27:15.797Z,97.00
2017-12-23T03:28:20.328Z,96.97
2017-12-23T03:29:24.817Z,97.04
2017-12-23T03:30:29.337Z,96.94
2017-12-23T03:31:33.776Z,96.96
2017-12-23T03:32:38.409Z,96.94
2017-12-23T03:33:43.256Z,96.70
2017-12-23T03:34:47.660Z,96.75
2017-12-23T03:35:52.141Z,96.82
2017-12-23T03:36:56.560Z,96.88
2017-12-23T03:38:01.061Z,97.00
2017-12-23T03:39:09.016Z,96.96
2017-12-23T03:40:13.412Z,96.97
2017-12-23T03:41:17.969Z,97.03
2017-12-23T03:42:22.723Z,97.19
2017-12-23T03:43:27.701Z,97.28
2017-12-23T03:44:32.255Z,97.24
2017-12-23T03:45:37.182Z,97.21
2017-12-23T03:46:42.524Z,97.24
2017-12-23T03:47:47.030Z,97.18
2017-12-23T03:48:51.509Z,97.30
2017-12-23T03:49:56.008Z,97.27
2017-12-23T03:51:00.519Z,97.20
2017-12-23T03:52:05.340Z,97.20
2017-12-23T03:53:09.833Z,97.17
2017-12-23T03:54:20.480Z,97.19
2017-12-23T03:55:25.603Z,97.15
2017-12-23T03:56:38.574Z,97.16
2017-12-23T03:57:43.792Z,96.90
2017-12-23T03:58:48.221Z,96.85
2017-12-23T03:59:52.844Z,96.91
2017-12-23T04:00:57.452Z,96.84
2017-12-23T04:02:01.920Z,96.76
2017-12-23T04:03:06.472Z,96.76
2017-12-23T04:04:11.240Z,96.71
2017-12-23T04:05:15.829Z,96.70
2017-12-23T04:06:20.280Z,96.68
2017-12-23T04:07:24.852Z,96.81
2017-12-23T04:08:29.367Z,96.76
2017-12-23T04:09:33.779Z,96.81
2017-12-23T04:10:39.170Z,96.79
2017-12-23T04:11:43.632Z,96.78
2017-12-23T04:12:48.063Z,96.71
2017-12-23T04:13:52.537Z,96.42
2017-12-23T04:14:57.059Z,96.47
2017-12-23T04:16:02.294Z,96.55
2017-12-23T04:17:06.815Z,96.66
2017-12-23T04:18:11.989Z,96.57
2017-12-23T04:19:16.495Z,96.41
2017-12-23T04:20:21.061Z,96.49
2017-12-23T04:21:26.427Z,96.46
2017-12-23T04:22:31.142Z,96.56
2017-12-23T04:23:35.591Z,96.52
2017-12-23T04:24:40.716Z,96.58
2017-12-23T04:25:45.257Z,96.60
2017-12-23T04:26:49.651Z,96.62
2017-12-23T04:27:54.100Z,96.55
2017-12-23T04:28:58.836Z,96.46
2017-12-23T04:30:04.892Z,96.43
2017-12-23T04:31:09.650Z,96.51
2017-12-23T04:32:22.553Z,96.47
2017-12-23T04:33:26.968Z,96.52
2017-12-23T04:34:31.344Z,96.57
2017-12-23T04:35:36.215Z,96.48
2017-12-23T04:36:41.618Z,96.32
2017-12-23T04:37:46.028Z,96.42
2017-12-23T04:38:50.464Z,96.28
2017-12-23T04:39:54.929Z,96.22
2017-12-23T04:40:59.544Z,96.25
2017-12-23T04:42:03.989Z,96.14
2017-12-23T04:43:08.521Z,96.03
2017-12-23T04:44:12.981Z,96.00
2017-12-23T04:45:17.484Z,96.13
2017-12-23T04:46:22.366Z,95.88
2017-12-23T04:47:26.775Z,95.88
2017-12-23T04:48:31.354Z,95.83
2017-12-23T04:49:35.814Z,95.75
2017-12-23T04:50:40.476Z,95.98
2017-12-23T04:51:45.704Z,96.12
2017-12-23T04:52:50.502Z,96.10
2017-12-23T04:53:55.063Z,96.13
2017-12-23T04:54:59.641Z,95.94
2017-12-23T04:56:04.261Z,96.00
2017-12-23T04:57:08.648Z,96.00
2017-12-23T04:58:13.364Z,95.92
2017-12-23T04:59:17.959Z,95.83
2017-12-23T05:00:22.669Z,95.73
2017-12-23T05:01:28.120Z,95.69
2017-12-23T05:02:32.823Z,95.70
2017-12-23T05:03:37.233Z,95.83
2017-12-23T05:04:42.327Z,95.96
2017-12-23T05:05:47.044Z,96.11
2017-12-23T05:06:51.593Z,96.04
2017-12-23T05:07:56.070Z,95.82
2017-12-23T05:09:00.523Z,95.99
2017-12-23T05:10:05.356Z,96.06
2017-12-23T05:11:09.844Z,95.89
2017-12-23T05:12:14.361Z,95.87
2017-12-23T05:13:18.774Z,95.82
2017-12-23T05:14:23.752Z,95.99
2017-12-23T05:15:29.576Z,95.73
2017-12-23T05:16:34.284Z,95.70
2017-12-23T05:17:38.755Z,95.71
2017-12-23T05:18:43.951Z,95.73
2017-12-23T05:19:48.356Z,95.74
2017-12-23T05:20:52.913Z,95.83
2017-12-23T05:21:57.452Z,95.98
2017-12-23T05:23:01.888Z,96.03
2017-12-23T05:24:10.698Z,96.24
2017-12-23T05:25:15.193Z,96.27
2017-12-23T05:26:19.689Z,96.23
2017-12-23T05:27:25.232Z,96.38
2017-12-23T05:28:29.950Z,96.27
2017-12-23T05:29:34.412Z,96.06
2017-12-23T05:30:38.901Z,96.06
2017-12-23T05:31:43.334Z,96.05
2017-12-23T05:32:47.790Z,96.02
2017-12-23T05:33:52.163Z,96.03
2017-12-23T05:34:56.911Z,95.98
2017-12-23T05:36:01.295Z,95.91
2017-12-23T05:37:05.650Z,95.71
2017-12-23T05:38:10.226Z,95.88
2017-12-23T05:39:14.628Z,95.85
2017-12-23T05:40:19.644Z,95.97
2017-12-23T05:41:25.436Z,96.01
2017-12-23T05:42:30.023Z,95.95
2017-12-23T05:43:34.504Z,96.15
2017-12-23T05:44:38.943Z,96.03
2017-12-23T05:45:43.683Z,95.75
2017-12-23T05:46:48.290Z,95.97
2017-12-23T05:47:53.063Z,95.77
2017-12-23T05:48:57.641Z,95.77
2017-12-23T05:50:02.018Z,95.96
2017-12-23T05:51:06.466Z,95.97
2017-12-23T05:52:10.915Z,95.89
2017-12-23T05:53:15.371Z,96.06
2017-12-23T05:54:20.043Z,95.92
2017-12-23T05:55:24.480Z,95.82
2017-12-23T05:56:30.142Z,95.75
2017-12-23T05:57:34.743Z,95.69
2017-12-23T05:58:39.232Z,95.71
2017-12-23T05:59:44.871Z,95.63
2017-12-23T06:00:50.068Z,95.41
2017-12-23T06:01:54.799Z,95.39
2017-12-23T06:02:59.265Z,95.65
2017-12-23T06:04:03.736Z,95.73
2017-12-23T06:05:08.248Z,95.83
2017-12-23T06:06:12.661Z,95.83
2017-12-23T06:07:17.143Z,95.90
2017-12-23T06:08:21.984Z,95.67
2017-12-23T06:09:26.469Z,95.70
2017-12-23T06:10:30.959Z,95.74
2017-12-23T06:11:35.484Z,95.73
2017-12-23T06:12:40.963Z,95.76
2017-12-23T06:13:45.508Z,95.72
2017-12-23T06:14:49.923Z,95.57
2017-12-23T06:15:54.691Z,95.50
2017-12-23T06:16:59.141Z,95.25
2017-12-23T06:18:03.704Z,95.20
2017-12-23T06:19:08.488Z,95.17
2017-12-23T06:20:12.963Z,95.04
2017-12-23T06:21:17.407Z,95.14
2017-12-23T06:22:22.103Z,95.20
2017-12-23T06:23:27.269Z,95.27
2017-12-23T06:24:36.939Z,95.48
2017-12-23T06:25:42.022Z,95.49
2017-12-23T06:26:46.538Z,95.54
2017-12-23T06:27:50.955Z,95.45
2017-12-23T06:28:55.467Z,95.25
2017-12-23T06:29:59.985Z,95.30
2017-12-23T06:31:04.998Z,95.11
2017-12-23T06:32:19.145Z,95.21
2017-12-23T06:33:24.614Z,95.42
2017-12-23T06:34:31.434Z,95.37
2017-12-23T06:35:36.171Z,95.36
2017-12-23T06:36:40.908Z,95.42
2017-12-23T06:37:45.515Z,95.63
2017-12-23T06:38:57.234Z,95.82
2017-12-23T06:40:09.252Z,95.85
2017-12-23T06:41:13.731Z,95.86
2017-12-23T06:42:18.688Z,95.79
2017-12-23T06:43:23.398Z,95.62
2017-12-23T06:44:28.052Z,95.38
2017-12-23T06:45:32.832Z,95.19
2017-12-23T06:46:37.480Z,95.17
2017-12-23T06:47:42.991Z,95.04
2017-12-23T06:48:48.080Z,95.00
2017-12-23T06:49:52.824Z,95.12
2017-12-23T06:50:57.366Z,95.29
2017-12-23T06:52:01.888Z,95.50
2017-12-23T06:53:06.388Z,95.42
2017-12-23T06:54:10.928Z,95.30
2017-12-23T06:55:17.201Z,95.29
2017-12-23T06:56:26.305Z,95.59
2017-12-23T06:57:31.036Z,95.56
2017-12-23T06:58:35.491Z,95.52
2017-12-23T06:59:40.651Z,95.44
2017-12-23T07:00:45.359Z,95.48
2017-12-23T07:01:51.876Z,95.28
2017-12-23T07:02:56.332Z,95.24
2017-12-23T07:04:01.021Z,95.48
2017-12-23T07:05:05.635Z,95.29
2017-12-23T07:06:10.083Z,95.26
2017-12-23T07:07:15.692Z,94.94
2017-12-23T07:08:20.376Z,94.84
2017-12-23T07:21:03.532Z,94.45
2017-12-23T07:22:07.979Z,94.35
2017-12-23T07:23:18.496Z,94.43
2017-12-23T07:24:23.240Z,94.30
2017-12-23T07:25:31.337Z,94.05
2017-12-23T07:26:36.443Z,94.12
2017-12-23T07:27:42.679Z,94.22
2017-12-23T07:28:51.785Z,94.35
2017-12-23T07:29:59.107Z,94.40
2017-12-23T07:31:03.793Z,94.43
2017-12-23T07:32:08.615Z,94.32
2017-12-23T07:33:13.995Z,94.13
2017-12-23T07:34:20.832Z,93.99
2017-12-23T07:35:25.515Z,94.09
2017-12-23T07:36:30.221Z,94.03
2017-12-23T07:37:35.049Z,94.05
2017-12-23T07:38:39.650Z,94.08
2017-12-23T07:39:44.247Z,94.30
2017-12-23T07:40:49.165Z,94.39
2017-12-23T07:41:53.698Z,94.28
2017-12-23T07:42:58.142Z,94.14
2017-12-23T07:44:02.920Z,94.00
2017-12-23T07:45:08.759Z,93.28
2017-12-23T07:46:13.433Z,93.54
2017-12-23T07:47:18.289Z,93.43
2017-12-23T07:48:24.228Z,93.70
2017-12-23T07:49:29.033Z,93.69
2017-12-23T07:50:33.559Z,93.64
2017-12-23T07:51:38.061Z,93.66
2017-12-23T07:52:42.622Z,93.84
2017-12-23T07:53:47.359Z,93.86
2017-12-23T07:54:51.750Z,94.11
2017-12-23T07:55:56.623Z,94.02
2017-12-23T07:57:01.392Z,93.85
2017-12-23T07:58:05.792Z,94.06
2017-12-23T07:59:10.236Z,94.16
2017-12-23T08:00:18.537Z,94.47
2017-12-23T08:01:23.777Z,94.62
2017-12-23T08:02:28.567Z,94.53
2017-12-23T08:03:33.040Z,94.59
2017-12-23T08:04:37.572Z,94.67
2017-12-23T08:05:42.177Z,94.79
2017-12-23T08:06:47.682Z,94.66
2017-12-23T08:07:52.240Z,94.67
2017-12-23T08:08:56.663Z,94.76
2017-12-23T08:10:01.079Z,94.59
2017-12-23T08:11:06.309Z,94.12
2017-12-23T08:12:10.807Z,94.10
2017-12-23T08:13:15.257Z,94.25
2017-12-23T08:14:19.817Z,94.23
2017-12-23T08:15:24.650Z,94.21
2017-12-23T08:16:29.549Z,94.22
2017-12-23T08:17:34.084Z,94.16
2017-12-23T08:18:38.730Z,94.08
2017-12-23T08:19:43.827Z,93.90
2017-12-23T08:20:48.596Z,94.09
2017-12-23T08:21:53.195Z,94.29
2017-12-23T08:22:57.630Z,94.43
2017-12-23T08:24:02.246Z,94.37
2017-12-23T08:25:06.739Z,94.35
2017-12-23T08:26:11.290Z,94.49
2017-12-23T08:27:16.270Z,94.24
2017-12-23T08:28:20.852Z,94.24
2017-12-23T08:29:32.731Z,94.33
2017-12-23T08:30:37.422Z,94.26
2017-12-23T08:31:43.326Z,94.24
2017-12-23T08:32:49.184Z,94.29
2017-12-23T08:33:53.747Z,94.21
2017-12-23T08:34:58.288Z,94.28
2017-12-23T08:36:02.735Z,94.21
2017-12-23T08:37:07.300Z,94.06
2017-12-23T08:38:11.865Z,93.97
2017-12-23T08:39:18.917Z,93.78
2017-12-23T08:40:24.068Z,93.85
2017-12-23T08:41:31.369Z,94.10
2017-12-23T08:42:36.057Z,94.22
2017-12-23T08:43:41.705Z,94.14
2017-12-23T08:44:46.291Z,94.22
2017-12-23T08:45:51.383Z,94.25
2017-12-23T08:46:55.867Z,94.22
2017-12-23T08:48:00.394Z,94.30
2017-12-23T08:49:04.955Z,94.33
2017-12-23T08:50:09.439Z,94.49
2017-12-23T08:51:14.048Z,94.55
2017-12-23T08:52:18.941Z,94.66
2017-12-23T08:53:23.597Z,94.65
2017-12-23T08:54:29.119Z,94.97
2017-12-23T08:55:34.009Z,94.51
2017-12-23T08:56:38.927Z,94.43
2017-12-23T08:57:44.396Z,94.38
2017-12-23T08:58:49.249Z,94.41
2017-12-23T08:59:53.792Z,94.72
2017-12-23T09:00:58.740Z,94.61
2017-12-23T09:02:05.183Z,94.77
2017-12-23T09:03:11.758Z,95.01
2017-12-23T09:04:17.410Z,95.05
2017-12-23T09:05:22.376Z,94.67
2017-12-23T09:06:28.225Z,94.59
2017-12-23T09:07:33.820Z,94.75
2017-12-23T09:08:38.556Z,94.82
2017-12-23T09:09:45.555Z,94.91
2017-12-23T09:10:50.844Z,94.97
2017-12-23T09:11:55.735Z,94.81
2017-12-23T09:13:00.425Z,94.86
2017-12-23T09:14:07.052Z,94.98
2017-12-23T09:15:14.047Z,95.15
2017-12-23T09:16:19.610Z,95.26
2017-12-23T09:17:25.809Z,95.26
2017-12-23T09:18:31.288Z,95.34
2017-12-23T09:19:36.765Z,95.38
2017-12-23T09:20:46.233Z,95.31
2017-12-23T09:21:55.744Z,95.35
2017-12-23T09:23:03.689Z,95.20
2017-12-23T09:24:12.115Z,95.11
2017-12-23T09:25:20.201Z,95.12
2017-12-23T09:26:27.869Z,95.10
2017-12-23T09:27:35.346Z,95.25
2017-12-23T09:28:45.092Z,95.12
2017-12-23T09:29:53.832Z,94.92
2017-12-23T09:31:01.624Z,95.07
2017-12-23T09:32:09.943Z,95.18
2017-12-23T09:33:17.520Z,95.16
2017-12-23T09:34:27.659Z,95.15
2017-12-23T09:35:35.341Z,95.13
2017-12-23T09:36:41.306Z,95.40
2017-12-23T09:37:53.129Z,95.16
2017-12-23T09:39:00.239Z,95.22
2017-12-23T09:40:08.533Z,95.23
2017-12-23T09:41:17.401Z,95.25
2017-12-23T09:42:27.261Z,95.21
2017-12-23T09:43:34.829Z,95.29
2017-12-23T09:44:43.002Z,94.83
2017-12-23T09:45:53.644Z,95.01
2017-12-23T09:47:01.447Z,95.22
2017-12-23T09:48:11.495Z,95.19
2017-12-23T09:49:19.997Z,95.36
2017-12-23T09:50:29.911Z,95.13
2017-12-23T09:51:40.019Z,95.18
2017-12-23T09:52:48.507Z,95.12
2017-12-23T09:53:58.604Z,94.97
2017-12-23T09:55:07.408Z,94.96
2017-12-23T09:56:17.090Z,94.93
2017-12-23T09:57:26.522Z,95.09
2017-12-23T09:58:36.856Z,95.07
2017-12-23T09:59:46.242Z,94.98
2017-12-23T10:00:55.179Z,95.01
2017-12-23T10:02:04.050Z,95.07
2017-12-23T10:03:11.614Z,94.92
2017-12-23T10:04:18.417Z,95.19
2017-12-23T10:05:26.621Z,94.97
2017-12-23T10:06:34.535Z,94.88
2017-12-23T10:07:44.249Z,94.71
2017-12-23T10:08:53.545Z,94.77
2017-12-23T10:10:01.989Z,94.89
2017-12-23T10:11:10.994Z,94.57
2017-12-23T10:12:18.926Z,94.79
2017-12-23T10:13:28.077Z,94.99
2017-12-23T10:14:37.784Z,94.79
2017-12-23T10:15:47.653Z,94.68
2017-12-23T10:16:57.167Z,94.46
2017-12-23T10:18:05.982Z,94.84
2017-12-23T10:19:14.874Z,94.67
2017-12-23T10:20:25.620Z,94.80
2017-12-23T10:21:36.259Z,94.89
2017-12-23T10:22:46.758Z,94.82
2017-12-23T10:23:57.018Z,94.93
2017-12-23T10:25:07.798Z,94.97
2017-12-23T10:26:17.849Z,94.94
2017-12-23T10:27:27.896Z,94.79
2017-12-23T10:28:37.738Z,94.85
2017-12-23T10:29:48.677Z,95.01
2017-12-23T10:30:59.971Z,95.00
2017-12-23T10:32:09.294Z,95.15
2017-12-23T10:33:19.261Z,95.35
2017-12-23T10:34:28.199Z,94.78
2017-12-23T10:35:36.904Z,94.71
2017-12-23T10:36:46.758Z,94.69
2017-12-23T10:37:55.787Z,94.71
2017-12-23T10:39:05.485Z,94.94
2017-12-23T10:40:17.383Z,94.57
2017-12-23T10:41:28.844Z,94.36
2017-12-23T10:42:37.659Z,94.32
2017-12-23T10:43:48.225Z,93.92
2017-12-23T10:44:56.753Z,93.74
2017-12-23T10:46:06.561Z,93.75
2017-12-23T10:47:16.701Z,93.77
2017-12-23T10:48:28.498Z,94.02
2017-12-23T10:49:37.468Z,94.14
2017-12-23T10:50:46.501Z,94.07
2017-12-23T10:51:58.147Z,94.03
2017-12-23T10:54:24.859Z,94.63
2017-12-23T10:55:34.611Z,94.60
2017-12-23T10:56:43.283Z,94.75
2017-12-23T10:57:52.372Z,94.94
2017-12-23T10:59:01.788Z,94.95
2017-12-23T11:00:25.312Z,94.99
2017-12-23T11:01:34.499Z,95.10
2017-12-23T11:02:44.283Z,95.21
2017-12-23T11:03:55.635Z,95.24
2017-12-23T11:05:04.198Z,95.15
2017-12-23T11:06:13.927Z,95.03
2017-12-23T11:07:24.586Z,94.65
2017-12-23T11:08:37.693Z,94.87
2017-12-23T11:09:47.177Z,94.55
2017-12-23T11:10:56.093Z,94.76
2017-12-23T11:12:07.661Z,94.74
2017-12-23T11:13:16.519Z,95.07
2017-12-23T11:14:25.779Z,94.29
2017-12-23T11:15:34.683Z,94.12
2017-12-23T11:16:44.145Z,94.19
2017-12-23T11:17:53.467Z,94.22
2017-12-23T11:19:03.454Z,94.52
2017-12-23T11:20:12.969Z,94.54
2017-12-23T11:21:22.715Z,94.54
2017-12-23T11:22:32.755Z,94.40
2017-12-23T11:23:42.787Z,94.27
2017-12-23T11:24:52.688Z,94.27
2017-12-23T11:25:59.871Z,94.15
2017-12-23T11:27:08.674Z,94.26
2017-12-23T11:28:18.828Z,94.31
2017-12-23T11:29:27.902Z,94.44
2017-12-23T11:30:36.000Z,94.43
2017-12-23T11:31:43.578Z,94.17
2017-12-23T11:32:53.914Z,94.37
2017-12-23T11:34:02.274Z,94.45
2017-12-23T11:35:11.334Z,94.25
2017-12-23T11:36:17.308Z,94.32
2017-12-23T11:37:24.272Z,94.38
2017-12-23T11:38:30.762Z,94.42
2017-12-23T11:39:39.804Z,94.53
2017-12-23T11:40:47.882Z,94.23
2017-12-23T11:41:52.705Z,94.37
2017-12-23T11:42:58.495Z,94.26
2017-12-23T11:44:07.200Z,94.47
2017-12-23T11:45:19.377Z,94.48
2017-12-23T11:46:29.776Z,94.57
2017-12-23T11:47:37.810Z,94.65
2017-12-23T11:48:46.744Z,94.73
2017-12-23T11:49:54.759Z,94.62
2017-12-23T11:51:03.596Z,94.51
2017-12-23T11:52:11.129Z,94.82
2017-12-23T11:53:19.888Z,94.76
2017-12-23T11:54:28.367Z,94.22
2017-12-23T11:55:37.318Z,94.40
2017-12-23T11:56:44.549Z,94.09
2017-12-23T11:57:53.898Z,94.35
2017-12-23T11:59:04.042Z,94.55
2017-12-23T12:00:18.290Z,94.76
2017-12-23T12:01:34.217Z,94.80
2017-12-23T12:02:43.434Z,94.76
2017-12-23T12:03:53.345Z,94.82
2017-12-23T12:05:03.042Z,94.77
2017-12-23T12:06:11.739Z,94.72
2017-12-23T12:07:17.230Z,94.68
2017-12-23T12:08:25.922Z,94.54
2017-12-23T12:09:33.346Z,94.15
2017-12-23T12:10:40.808Z,94.33
2017-12-23T12:11:45.324Z,94.43
2017-12-23T12:12:51.602Z,94.52
2017-12-23T12:13:56.436Z,94.28
2017-12-23T12:15:06.402Z,94.45
2017-12-23T12:16:32.793Z,94.55
2017-12-23T12:17:38.403Z,94.49
2017-12-23T12:18:44.698Z,94.48
2017-12-23T12:19:50.241Z,94.78
2017-12-23T12:20:54.905Z,94.64
2017-12-23T12:21:59.748Z,94.41
2017-12-23T12:23:05.160Z,94.17
2017-12-23T12:24:09.804Z,94.07
2017-12-23T12:25:15.511Z,94.09
2017-12-23T12:26:20.453Z,94.12
2017-12-23T12:27:26.189Z,94.29
2017-12-23T12:28:32.039Z,94.08
2017-12-23T12:29:37.501Z,94.12
2017-12-23T12:30:46.965Z,94.45
2017-12-23T12:31:54.555Z,94.23
2017-12-23T12:33:01.338Z,94.13
2017-12-23T12:34:07.323Z,94.33
2017-12-23T12:35:12.790Z,94.31
2017-12-23T12:36:23.227Z,94.25
2017-12-23T12:37:28.982Z,94.22
2017-12-23T12:38:35.272Z,94.12
2017-12-23T12:39:40.219Z,94.26
2017-12-23T12:40:46.357Z,94.16
2017-12-23T12:41:53.054Z,94.15
2017-12-23T12:42:57.844Z,93.77
2017-12-23T12:44:03.034Z,93.95
2017-12-23T12:45:14.408Z,93.71
2017-12-23T12:46:19.051Z,93.65
2017-12-23T12:47:26.610Z,93.65
2017-12-23T12:48:36.671Z,93.90
2017-12-23T12:49:48.114Z,93.80
2017-12-23T12:51:00.061Z,93.88
2017-12-23T12:52:11.007Z,94.28
2017-12-23T12:53:24.992Z,93.65
2017-12-23T12:54:36.084Z,93.76
2017-12-23T12:55:44.922Z,93.85
2017-12-23T12:56:50.639Z,93.36
2017-12-23T12:57:55.912Z,93.51
2017-12-23T12:59:00.692Z,93.62
2017-12-23T13:00:07.560Z,93.87
2017-12-23T13:01:13.301Z,93.74
2017-12-23T13:02:19.053Z,93.80
2017-12-23T13:03:24.220Z,93.56
2017-12-23T13:04:30.267Z,93.57
2017-12-23T13:05:35.210Z,93.57
2017-12-23T13:06:39.896Z,93.76
2017-12-23T13:07:44.394Z,93.57
2017-12-23T13:08:49.136Z,93.29
2017-12-23T13:09:54.203Z,93.66
2017-12-23T13:10:58.788Z,93.39
2017-12-23T13:12:16.439Z,93.70
2017-12-23T13:13:27.463Z,93.78
2017-12-23T13:14:36.531Z,93.79
2017-12-23T13:15:44.842Z,93.90
2017-12-23T13:16:50.855Z,93.66
2017-12-23T13:17:55.250Z,93.88
2017-12-23T13:18:59.800Z,93.63
2017-12-23T13:20:06.385Z,93.87
2017-12-23T13:21:13.474Z,93.70
2017-12-23T13:22:20.550Z,93.64
2017-12-23T13:23:31.121Z,93.62
2017-12-23T13:24:40.002Z,93.73
2017-12-23T13:25:46.071Z,93.90
2017-12-23T13:26:53.160Z,93.84
2017-12-23T13:28:02.095Z,93.48
2017-12-23T13:29:11.587Z,93.56
2017-12-23T13:30:20.985Z,93.58
2017-12-23T13:31:25.961Z,93.81
2017-12-23T13:32:39.393Z,93.73
2017-12-23T13:33:44.878Z,93.60
2017-12-23T13:34:53.870Z,93.82
2017-12-23T13:36:05.147Z,93.92
2017-12-23T13:37:16.419Z,93.78
2017-12-23T13:38:26.444Z,93.77
2017-12-23T13:39:36.835Z,93.64
2017-12-23T13:40:49.583Z,93.70
2017-12-23T13:41:54.451Z,93.55
2017-12-23T13:42:59.121Z,93.97
2017-12-23T13:44:04.780Z,93.60
2017-12-23T13:45:10.060Z,93.62
2017-12-23T13:46:15.620Z,93.56
2017-12-23T13:47:23.566Z,93.38
2017-12-23T13:48:31.264Z,93.46
2017-12-23T13:49:37.879Z,93.12
2017-12-23T13:50:45.309Z,93.09
2017-12-23T13:51:50.211Z,93.33
2017-12-23T13:52:54.722Z,93.41
2017-12-23T13:54:01.130Z,93.48
2017-12-23T13:55:05.443Z,93.87
2017-12-23T13:56:16.107Z,93.54
2017-12-23T13:57:21.319Z,93.40
2017-12-23T13:58:26.164Z,93.47
2017-12-23T13:59:30.419Z,93.46
2017-12-23T14:00:36.584Z,93.43
2017-12-23T14:01:41.798Z,93.59
2017-12-23T14:02:46.646Z,93.40
2017-12-23T14:03:51.572Z,93.35
2017-12-23T14:04:56.059Z,93.45
2017-12-23T14:06:02.205Z,93.36
2017-12-23T14:07:12.513Z,93.27
2017-12-23T14:08:25.307Z,93.88
2017-12-23T14:09:39.735Z,93.82
2017-12-23T14:10:45.968Z,93.86
2017-12-23T14:11:53.734Z,93.85
2017-12-23T14:13:01.342Z,93.88
2017-12-23T14:14:10.751Z,93.33
2017-12-23T14:15:22.144Z,93.00
2017-12-23T14:16:30.815Z,93.17
2017-12-23T14:17:40.818Z,93.20
2017-12-23T14:18:49.750Z,93.31
2017-12-23T14:20:02.337Z,93.40
2017-12-23T14:21:12.460Z,93.67
2017-12-23T14:22:17.889Z,93.53
2017-12-23T14:23:23.565Z,93.52
2017-12-23T14:24:28.000Z,93.75
2017-12-23T14:25:33.737Z,93.76
2017-12-23T14:26:38.276Z,93.67
2017-12-23T14:27:42.702Z,93.47
2017-12-23T14:28:47.148Z,93.42